sensor_id;sensor_type;location;lat;lon;timestamp;temperature;humidity
44855;DHT22;30591;48.228;16.398;2022-12-08T00:01:30;1.50;99.90
44855;DHT22;30591;48.228;16.398;2022-12-08T00:04:01;1.50;99.90
44855;DHT22;30591;48.228;16.398;2022-12-08T00:06:34;1.40;99.90
44855;DHT22;30591;48.228;16.398;2022-12-08T00:12:11;1.40;99.90
44855;DHT22;30591;48.228;16.398;2022-12-08T00:14:45;1.50;99.90
44855;DHT22;30591;48.228;16.398;2022-12-08T00:17:15;1.40;99.90
44855;DHT22;30591;48.228;16.398;2022-12-08T00:19:43;1.40;99.90
44855;DHT22;30591;48.228;16.398;2022-12-08T00:22:12;1.40;99.90
44855;DHT22;30591;48.228;16.398;2022-12-08T00:24:42;1.40;99.90
44855;DHT22;30591;48.228;16.398;2022-12-08T00:27:14;1.40;99.90
44855;DHT22;30591;48.228;16.398;2022-12-08T00:29:43;1.40;99.90
44855;DHT22;30591;48.228;16.398;2022-12-08T00:32:11;1.40;99.90
44855;DHT22;30591;48.228;16.398;2022-12-08T00:34:39;1.40;99.90
44855;DHT22;30591;48.228;16.398;2022-12-08T00:37:07;1.40;99.90
44855;DHT22;30591;48.228;16.398;2022-12-08T00:39:35;1.40;99.90
44855;DHT22;30591;48.228;16.398;2022-12-08T00:42:03;1.40;99.90
44855;DHT22;30591;48.228;16.398;2022-12-08T00:44:44;1.40;99.90
44855;DHT22;30591;48.228;16.398;2022-12-08T00:47:13;1.30;99.90
44855;DHT22;30591;48.228;16.398;2022-12-08T00:49:41;1.40;99.90
44855;DHT22;30591;48.228;16.398;2022-12-08T00:52:08;1.50;99.90
44855;DHT22;30591;48.228;16.398;2022-12-08T00:54:36;1.50;99.90
44855;DHT22;30591;48.228;16.398;2022-12-08T00:57:03;1.50;99.90
44855;DHT22;30591;48.228;16.398;2022-12-08T00:59:30;1.50;99.90
44855;DHT22;30591;48.228;16.398;2022-12-08T01:01:59;1.50;99.90
44855;DHT22;30591;48.228;16.398;2022-12-08T01:04:26;1.50;99.90
44855;DHT22;30591;48.228;16.398;2022-12-08T01:06:53;1.30;99.90
44855;DHT22;30591;48.228;16.398;2022-12-08T01:09:21;1.40;99.90
44855;DHT22;30591;48.228;16.398;2022-12-08T01:11:49;1.40;99.90
44855;DHT22;30591;48.228;16.398;2022-12-08T01:14:16;1.60;99.90
44855;DHT22;30591;48.228;16.398;2022-12-08T01:16:43;1.60;99.90
44855;DHT22;30591;48.228;16.398;2022-12-08T01:19:12;1.60;99.90
44855;DHT22;30591;48.228;16.398;2022-12-08T01:21:41;1.70;99.90
44855;DHT22;30591;48.228;16.398;2022-12-08T01:24:11;1.60;99.90
44855;DHT22;30591;48.228;16.398;2022-12-08T01:26:40;1.50;99.90
44855;DHT22;30591;48.228;16.398;2022-12-08T01:29:07;1.60;99.90
44855;DHT22;30591;48.228;16.398;2022-12-08T01:31:35;1.60;99.90
44855;DHT22;30591;48.228;16.398;2022-12-08T01:34:04;1.60;99.90
44855;DHT22;30591;48.228;16.398;2022-12-08T01:36:33;1.60;99.90
44855;DHT22;30591;48.228;16.398;2022-12-08T01:39:05;1.50;99.90
44855;DHT22;30591;48.228;16.398;2022-12-08T01:41:36;1.50;99.90
44855;DHT22;30591;48.228;16.398;2022-12-08T01:46:39;1.60;99.90
44855;DHT22;30591;48.228;16.398;2022-12-08T01:49:15;1.60;99.90
44855;DHT22;30591;48.228;16.398;2022-12-08T01:51:56;1.60;99.90
44855;DHT22;30591;48.228;16.398;2022-12-08T01:54:28;1.50;99.90
44855;DHT22;30591;48.228;16.398;2022-12-08T01:57:02;1.60;99.90
44855;DHT22;30591;48.228;16.398;2022-12-08T01:59:38;1.70;99.90
44855;DHT22;30591;48.228;16.398;2022-12-08T02:02:08;1.70;99.90
44855;DHT22;30591;48.228;16.398;2022-12-08T02:04:36;1.70;99.90
44855;DHT22;30591;48.228;16.398;2022-12-08T02:07:05;1.70;99.90
44855;DHT22;30591;48.228;16.398;2022-12-08T02:09:35;1.60;99.90
44855;DHT22;30591;48.228;16.398;2022-12-08T02:12:03;1.70;99.90
44855;DHT22;30591;48.228;16.398;2022-12-08T02:14:31;1.60;99.90
44855;DHT22;30591;48.228;16.398;2022-12-08T02:25:32;1.60;99.90
44855;DHT22;30591;48.228;16.398;2022-12-08T02:33:26;1.70;99.90
44855;DHT22;30591;48.228;16.398;2022-12-08T02:36:05;1.70;99.90
44855;DHT22;30591;48.228;16.398;2022-12-08T02:39:13;1.70;99.90
44855;DHT22;30591;48.228;16.398;2022-12-08T02:41:48;1.70;99.90
44855;DHT22;30591;48.228;16.398;2022-12-08T02:44:27;1.70;99.90
44855;DHT22;30591;48.228;16.398;2022-12-08T02:47:22;1.70;99.90
44855;DHT22;30591;48.228;16.398;2022-12-08T02:49:54;1.70;99.90
44855;DHT22;30591;48.228;16.398;2022-12-08T02:54:55;1.80;99.90
44855;DHT22;30591;48.228;16.398;2022-12-08T02:58:04;2.10;99.90
44855;DHT22;30591;48.228;16.398;2022-12-08T03:03:46;1.70;99.90
44855;DHT22;30591;48.228;16.398;2022-12-08T03:09:23;1.70;99.90
44855;DHT22;30591;48.228;16.398;2022-12-08T03:14:43;1.70;99.90
44855;DHT22;30591;48.228;16.398;2022-12-08T03:17:14;1.70;99.90
44855;DHT22;30591;48.228;16.398;2022-12-08T03:19:43;1.70;99.90
44855;DHT22;30591;48.228;16.398;2022-12-08T03:22:16;1.80;99.90
44855;DHT22;30591;48.228;16.398;2022-12-08T03:24:46;1.80;99.90
44855;DHT22;30591;48.228;16.398;2022-12-08T03:27:25;1.80;99.90
44855;DHT22;30591;48.228;16.398;2022-12-08T03:29:55;1.70;99.90
44855;DHT22;30591;48.228;16.398;2022-12-08T03:32:32;1.80;99.90
44855;DHT22;30591;48.228;16.398;2022-12-08T03:35:08;1.80;99.90
44855;DHT22;30591;48.228;16.398;2022-12-08T03:37:38;1.90;99.90
44855;DHT22;30591;48.228;16.398;2022-12-08T03:40:09;1.90;99.90
44855;DHT22;30591;48.228;16.398;2022-12-08T03:42:37;2.00;99.90
44855;DHT22;30591;48.228;16.398;2022-12-08T03:45:05;2.00;99.90
44855;DHT22;30591;48.228;16.398;2022-12-08T03:47:33;2.00;99.90
44855;DHT22;30591;48.228;16.398;2022-12-08T03:50:02;2.00;99.90
44855;DHT22;30591;48.228;16.398;2022-12-08T03:52:31;2.00;99.90
44855;DHT22;30591;48.228;16.398;2022-12-08T03:54:58;2.00;99.90
44855;DHT22;30591;48.228;16.398;2022-12-08T03:57:25;2.00;99.90
44855;DHT22;30591;48.228;16.398;2022-12-08T03:59:53;1.90;99.90
44855;DHT22;30591;48.228;16.398;2022-12-08T04:02:20;1.90;99.90
44855;DHT22;30591;48.228;16.398;2022-12-08T04:04:49;2.00;99.90
44855;DHT22;30591;48.228;16.398;2022-12-08T04:07:17;2.00;99.90
44855;DHT22;30591;48.228;16.398;2022-12-08T04:09:45;1.90;99.90
44855;DHT22;30591;48.228;16.398;2022-12-08T04:12:12;2.00;99.90
44855;DHT22;30591;48.228;16.398;2022-12-08T04:14:40;2.00;99.90
44855;DHT22;30591;48.228;16.398;2022-12-08T04:17:07;2.00;99.90
44855;DHT22;30591;48.228;16.398;2022-12-08T04:19:35;2.00;99.90
44855;DHT22;30591;48.228;16.398;2022-12-08T04:22:02;2.00;99.90
44855;DHT22;30591;48.228;16.398;2022-12-08T04:24:29;2.00;99.90
44855;DHT22;30591;48.228;16.398;2022-12-08T04:26:58;2.00;99.90
44855;DHT22;30591;48.228;16.398;2022-12-08T04:29:26;2.00;99.90
44855;DHT22;30591;48.228;16.398;2022-12-08T04:31:54;2.00;99.90
44855;DHT22;30591;48.228;16.398;2022-12-08T04:34:22;2.00;99.90
44855;DHT22;30591;48.228;16.398;2022-12-08T04:36:50;2.00;99.90
44855;DHT22;30591;48.228;16.398;2022-12-08T04:39:17;2.00;99.90
44855;DHT22;30591;48.228;16.398;2022-12-08T04:41:44;2.00;99.90
44855;DHT22;30591;48.228;16.398;2022-12-08T04:44:12;2.00;99.90
44855;DHT22;30591;48.228;16.398;2022-12-08T04:46:39;2.00;99.90
44855;DHT22;30591;48.228;16.398;2022-12-08T04:49:09;2.00;99.90
44855;DHT22;30591;48.228;16.398;2022-12-08T04:51:38;2.00;99.90
44855;DHT22;30591;48.228;16.398;2022-12-08T04:54:05;2.10;99.90
44855;DHT22;30591;48.228;16.398;2022-12-08T04:56:32;2.10;99.90
44855;DHT22;30591;48.228;16.398;2022-12-08T04:59:01;2.00;99.90
44855;DHT22;30591;48.228;16.398;2022-12-08T05:01:30;2.00;99.90
44855;DHT22;30591;48.228;16.398;2022-12-08T05:03:58;2.00;99.90
44855;DHT22;30591;48.228;16.398;2022-12-08T05:06:26;2.10;99.90
44855;DHT22;30591;48.228;16.398;2022-12-08T05:08:58;2.10;99.90
44855;DHT22;30591;48.228;16.398;2022-12-08T05:11:25;2.00;99.90
44855;DHT22;30591;48.228;16.398;2022-12-08T05:13:52;2.00;99.90
44855;DHT22;30591;48.228;16.398;2022-12-08T05:16:20;2.10;99.90
44855;DHT22;30591;48.228;16.398;2022-12-08T05:18:48;2.10;99.90
44855;DHT22;30591;48.228;16.398;2022-12-08T05:21:15;2.00;99.90
44855;DHT22;30591;48.228;16.398;2022-12-08T05:23:43;2.10;99.90
44855;DHT22;30591;48.228;16.398;2022-12-08T05:26:12;2.10;99.90
44855;DHT22;30591;48.228;16.398;2022-12-08T05:28:40;2.10;99.90
44855;DHT22;30591;48.228;16.398;2022-12-08T05:31:14;2.10;99.90
44855;DHT22;30591;48.228;16.398;2022-12-08T05:33:43;2.10;99.90
44855;DHT22;30591;48.228;16.398;2022-12-08T05:36:13;2.00;99.90
44855;DHT22;30591;48.228;16.398;2022-12-08T05:38:42;2.00;99.90
44855;DHT22;30591;48.228;16.398;2022-12-08T05:41:14;2.00;99.90
44855;DHT22;30591;48.228;16.398;2022-12-08T05:43:42;2.00;99.90
44855;DHT22;30591;48.228;16.398;2022-12-08T05:46:10;2.00;99.90
44855;DHT22;30591;48.228;16.398;2022-12-08T05:48:39;2.00;99.90
44855;DHT22;30591;48.228;16.398;2022-12-08T05:51:16;2.00;99.90
44855;DHT22;30591;48.228;16.398;2022-12-08T05:53:46;1.90;99.90
44855;DHT22;30591;48.228;16.398;2022-12-08T05:56:14;1.90;99.90
44855;DHT22;30591;48.228;16.398;2022-12-08T05:58:42;2.00;99.90
44855;DHT22;30591;48.228;16.398;2022-12-08T06:01:24;2.00;99.90
44855;DHT22;30591;48.228;16.398;2022-12-08T06:03:52;2.00;99.90
44855;DHT22;30591;48.228;16.398;2022-12-08T06:06:20;2.00;99.90
44855;DHT22;30591;48.228;16.398;2022-12-08T06:08:48;2.00;99.90
44855;DHT22;30591;48.228;16.398;2022-12-08T06:11:25;2.00;99.90
44855;DHT22;30591;48.228;16.398;2022-12-08T06:13:53;2.10;99.90
44855;DHT22;30591;48.228;16.398;2022-12-08T06:16:24;2.10;99.90
44855;DHT22;30591;48.228;16.398;2022-12-08T06:18:52;2.10;99.90
44855;DHT22;30591;48.228;16.398;2022-12-08T06:21:20;2.10;99.90
44855;DHT22;30591;48.228;16.398;2022-12-08T06:23:50;2.10;99.90
44855;DHT22;30591;48.228;16.398;2022-12-08T06:26:18;2.10;99.90
44855;DHT22;30591;48.228;16.398;2022-12-08T06:28:46;2.10;99.90
44855;DHT22;30591;48.228;16.398;2022-12-08T06:31:23;2.10;99.90
44855;DHT22;30591;48.228;16.398;2022-12-08T06:33:51;2.10;99.90
44855;DHT22;30591;48.228;16.398;2022-12-08T06:36:21;2.10;99.90
44855;DHT22;30591;48.228;16.398;2022-12-08T06:38:50;2.20;99.90
44855;DHT22;30591;48.228;16.398;2022-12-08T06:41:18;2.10;99.90
44855;DHT22;30591;48.228;16.398;2022-12-08T06:43:45;2.10;99.90
44855;DHT22;30591;48.228;16.398;2022-12-08T06:46:15;2.10;99.90
44855;DHT22;30591;48.228;16.398;2022-12-08T06:48:43;2.10;99.90
44855;DHT22;30591;48.228;16.398;2022-12-08T06:51:16;2.10;99.90
44855;DHT22;30591;48.228;16.398;2022-12-08T06:53:45;2.20;99.90
44855;DHT22;30591;48.228;16.398;2022-12-08T06:56:15;2.20;99.90
44855;DHT22;30591;48.228;16.398;2022-12-08T06:58:46;2.20;99.90
44855;DHT22;30591;48.228;16.398;2022-12-08T07:01:19;2.20;99.90
44855;DHT22;30591;48.228;16.398;2022-12-08T07:03:46;2.20;99.90
44855;DHT22;30591;48.228;16.398;2022-12-08T07:06:22;2.20;99.90
44855;DHT22;30591;48.228;16.398;2022-12-08T07:08:50;2.30;99.90
44855;DHT22;30591;48.228;16.398;2022-12-08T07:11:18;2.30;99.90
44855;DHT22;30591;48.228;16.398;2022-12-08T07:13:49;2.30;99.90
44855;DHT22;30591;48.228;16.398;2022-12-08T07:16:17;2.30;99.90
44855;DHT22;30591;48.228;16.398;2022-12-08T07:18:44;2.30;99.90
44855;DHT22;30591;48.228;16.398;2022-12-08T07:21:12;2.40;99.90
44855;DHT22;30591;48.228;16.398;2022-12-08T07:23:49;2.40;99.90
44855;DHT22;30591;48.228;16.398;2022-12-08T07:26:24;2.40;99.90
44855;DHT22;30591;48.228;16.398;2022-12-08T07:28:52;2.50;99.90
44855;DHT22;30591;48.228;16.398;2022-12-08T07:31:22;2.50;99.90
44855;DHT22;30591;48.228;16.398;2022-12-08T07:33:51;2.60;99.90
44855;DHT22;30591;48.228;16.398;2022-12-08T07:36:20;2.60;99.90
44855;DHT22;30591;48.228;16.398;2022-12-08T07:38:50;2.60;99.90
44855;DHT22;30591;48.228;16.398;2022-12-08T07:41:22;2.70;99.90
44855;DHT22;30591;48.228;16.398;2022-12-08T07:43:52;2.70;99.90
44855;DHT22;30591;48.228;16.398;2022-12-08T07:46:23;2.70;99.90
44855;DHT22;30591;48.228;16.398;2022-12-08T07:48:52;2.70;99.90
44855;DHT22;30591;48.228;16.398;2022-12-08T07:51:20;2.70;99.90
44855;DHT22;30591;48.228;16.398;2022-12-08T07:53:48;2.70;99.90
44855;DHT22;30591;48.228;16.398;2022-12-08T07:56:21;2.70;99.90
44855;DHT22;30591;48.228;16.398;2022-12-08T07:58:49;2.70;99.90
44855;DHT22;30591;48.228;16.398;2022-12-08T08:03:50;2.90;99.90
44855;DHT22;30591;48.228;16.398;2022-12-08T08:06:18;2.90;99.90
44855;DHT22;30591;48.228;16.398;2022-12-08T08:08:46;2.90;99.90
44855;DHT22;30591;48.228;16.398;2022-12-08T08:11:13;2.90;99.90
44855;DHT22;30591;48.228;16.398;2022-12-08T08:13:48;3.10;99.90
44855;DHT22;30591;48.228;16.398;2022-12-08T08:16:19;3.30;99.90
44855;DHT22;30591;48.228;16.398;2022-12-08T08:18:50;3.40;99.90
44855;DHT22;30591;48.228;16.398;2022-12-08T08:21:19;3.50;99.90
44855;DHT22;30591;48.228;16.398;2022-12-08T08:24:07;3.60;99.90
44855;DHT22;30591;48.228;16.398;2022-12-08T08:26:36;3.60;99.90
44855;DHT22;30591;48.228;16.398;2022-12-08T08:29:03;3.60;99.90
44855;DHT22;30591;48.228;16.398;2022-12-08T08:31:30;3.70;99.90
44855;DHT22;30591;48.228;16.398;2022-12-08T08:33:59;3.70;99.90
44855;DHT22;30591;48.228;16.398;2022-12-08T08:36:32;3.80;99.90
44855;DHT22;30591;48.228;16.398;2022-12-08T08:38:59;3.80;99.90
44855;DHT22;30591;48.228;16.398;2022-12-08T08:41:28;3.80;99.90
44855;DHT22;30591;48.228;16.398;2022-12-08T08:43:56;3.80;99.90
44855;DHT22;30591;48.228;16.398;2022-12-08T08:46:24;3.80;99.90
44855;DHT22;30591;48.228;16.398;2022-12-08T08:48:52;3.80;99.90
44855;DHT22;30591;48.228;16.398;2022-12-08T08:51:19;3.80;99.90
44855;DHT22;30591;48.228;16.398;2022-12-08T08:53:47;3.80;99.90
44855;DHT22;30591;48.228;16.398;2022-12-08T08:56:16;4.00;99.90
44855;DHT22;30591;48.228;16.398;2022-12-08T08:58:48;4.00;99.90
44855;DHT22;30591;48.228;16.398;2022-12-08T09:01:21;4.00;99.90
44855;DHT22;30591;48.228;16.398;2022-12-08T09:03:50;4.00;99.90
44855;DHT22;30591;48.228;16.398;2022-12-08T09:06:18;4.10;99.90
44855;DHT22;30591;48.228;16.398;2022-12-08T09:08:47;4.10;99.90
44855;DHT22;30591;48.228;16.398;2022-12-08T09:11:17;4.30;99.90
44855;DHT22;30591;48.228;16.398;2022-12-08T09:13:50;4.30;99.90
44855;DHT22;30591;48.228;16.398;2022-12-08T09:16:18;4.40;99.90
44855;DHT22;30591;48.228;16.398;2022-12-08T09:18:46;4.50;99.90
44855;DHT22;30591;48.228;16.398;2022-12-08T09:21:19;4.50;99.90
44855;DHT22;30591;48.228;16.398;2022-12-08T09:23:52;4.50;99.90
44855;DHT22;30591;48.228;16.398;2022-12-08T09:26:20;4.70;99.90
44855;DHT22;30591;48.228;16.398;2022-12-08T09:28:50;4.90;99.90
44855;DHT22;30591;48.228;16.398;2022-12-08T09:31:19;4.80;99.90
44855;DHT22;30591;48.228;16.398;2022-12-08T09:33:47;4.80;99.90
44855;DHT22;30591;48.228;16.398;2022-12-08T09:36:18;4.80;99.90
44855;DHT22;30591;48.228;16.398;2022-12-08T09:38:47;4.80;99.90
44855;DHT22;30591;48.228;16.398;2022-12-08T09:41:35;4.80;99.90
44855;DHT22;30591;48.228;16.398;2022-12-08T09:47:21;4.70;99.90
44855;DHT22;30591;48.228;16.398;2022-12-08T09:50:06;4.70;99.90
44855;DHT22;30591;48.228;16.398;2022-12-08T09:52:44;4.70;99.90
44855;DHT22;30591;48.228;16.398;2022-12-08T09:55:36;4.70;99.90
44855;DHT22;30591;48.228;16.398;2022-12-08T09:58:12;4.70;99.90
44855;DHT22;30591;48.228;16.398;2022-12-08T10:00:44;4.70;99.90
44855;DHT22;30591;48.228;16.398;2022-12-08T10:03:11;4.70;99.90
44855;DHT22;30591;48.228;16.398;2022-12-08T10:18:35;4.70;99.90
44855;DHT22;30591;48.228;16.398;2022-12-08T10:23:45;4.70;99.90
44855;DHT22;30591;48.228;16.398;2022-12-08T10:26:20;4.60;99.90
44855;DHT22;30591;48.228;16.398;2022-12-08T10:28:48;4.60;99.90
44855;DHT22;30591;48.228;16.398;2022-12-08T10:31:16;4.70;99.90
44855;DHT22;30591;48.228;16.398;2022-12-08T10:33:47;4.70;99.90
